createdAt,value
2022-10-01T00:01:29.499Z,85.60
2022-10-01T00:03:57.475Z,88.60
2022-10-01T00:06:25.678Z,89.60
2022-10-01T00:08:53.627Z,87.40
2022-10-01T00:11:24.045Z,90.10
2022-10-01T00:13:52.705Z,90.70
2022-10-01T00:16:24.023Z,89.90
2022-10-01T00:18:53.976Z,89.20
2022-10-01T00:21:23.693Z,88.40
2022-10-01T00:23:55.288Z,88.60
2022-10-01T00:26:27.173Z,90.20
2022-10-01T00:28:56.925Z,87.00
2022-10-01T00:31:25.652Z,90.20
2022-10-01T00:33:55.798Z,89.70
2022-10-01T00:36:23.810Z,89.70
2022-10-01T00:38:52.031Z,90.60
2022-10-01T00:41:20.546Z,86.80
2022-10-01T00:43:51.553Z,88.80
2022-10-01T00:46:25.114Z,86.90
2022-10-01T00:48:59.478Z,87.40
2022-10-01T00:51:29.913Z,90.20
2022-10-01T00:54:03.821Z,87.20
2022-10-01T00:56:34.164Z,90.50
2022-10-01T00:59:03.122Z,91.50
2022-10-01T01:01:31.872Z,92.80
2022-10-01T01:04:01.717Z,90.80
2022-10-01T01:06:30.546Z,91.40
2022-10-01T01:08:59.354Z,91.90
2022-10-01T01:11:37.391Z,91.70
2022-10-01T01:14:16.066Z,92.20
2022-10-01T01:16:51.373Z,92.30
2022-10-01T01:19:35.190Z,90.60
2022-10-01T01:22:07.590Z,92.40
2022-10-01T01:24:51.011Z,90.70
2022-10-01T01:27:34.557Z,90.90
2022-10-01T01:30:08.358Z,90.20
2022-10-01T01:32:46.342Z,91.10
2022-10-01T01:35:20.427Z,90.80
2022-10-01T01:37:53.717Z,90.90
2022-10-01T01:40:23.005Z,89.00
2022-10-01T01:42:52.445Z,91.40
2022-10-01T01:45:25.339Z,92.30
2022-10-01T01:47:56.417Z,92.40
2022-10-01T01:50:26.097Z,92.50
2022-10-01T01:52:54.318Z,93.00
2022-10-01T01:55:24.355Z,92.20
2022-10-01T01:57:52.519Z,92.10
2022-10-01T02:00:22.455Z,91.90
2022-10-01T02:02:54.449Z,87.80
2022-10-01T02:05:27.151Z,90.10
2022-10-01T02:08:17.659Z,89.00
2022-10-01T02:11:02.266Z,88.80
2022-10-01T02:13:39.925Z,89.30
2022-10-01T02:16:19.041Z,89.30
2022-10-01T02:18:53.783Z,88.70
2022-10-01T02:21:28.548Z,88.50
2022-10-01T02:24:00.421Z,87.70
2022-10-01T02:26:30.838Z,88.10
2022-10-01T02:29:02.257Z,88.90
2022-10-01T02:31:33.314Z,88.90
2022-10-01T02:34:04.437Z,91.50
2022-10-01T02:36:34.600Z,92.70
2022-10-01T02:39:05.201Z,92.60
2022-10-01T02:41:36.652Z,91.60
2022-10-01T02:44:08.536Z,91.40
2022-10-01T02:46:42.803Z,92.20
2022-10-01T02:49:13.301Z,94.40
2022-10-01T02:51:49.391Z,95.80
2022-10-01T02:54:23.609Z,96.80
2022-10-01T02:57:09.831Z,97.90
2022-10-01T02:59:37.821Z,98.80
2022-10-01T03:02:07.421Z,98.20
2022-10-01T03:04:35.492Z,98.20
2022-10-01T03:07:04.492Z,98.00
2022-10-01T03:09:32.753Z,97.80
2022-10-01T03:12:01.639Z,95.80
2022-10-01T03:14:29.988Z,95.40
2022-10-01T03:16:57.943Z,95.80
2022-10-01T03:19:27.301Z,93.90
2022-10-01T03:21:56.425Z,93.50
2022-10-01T03:24:24.524Z,92.80
2022-10-01T03:26:52.529Z,94.60
2022-10-01T03:29:20.583Z,93.60
2022-10-01T03:31:48.602Z,94.20
2022-10-01T03:34:16.641Z,94.60
2022-10-01T03:36:46.790Z,95.20
2022-10-01T03:39:15.044Z,96.70
2022-10-01T03:41:43.054Z,95.80
2022-10-01T03:44:11.095Z,96.00
2022-10-01T03:46:39.039Z,99.00
2022-10-01T03:49:07.087Z,96.40
2022-10-01T03:51:36.259Z,95.70
2022-10-01T03:54:07.011Z,96.50
2022-10-01T03:56:35.464Z,98.00
2022-10-01T03:59:03.665Z,97.70
2022-10-01T04:01:32.233Z,97.40
2022-10-01T04:04:00.407Z,98.20
2022-10-01T04:06:28.343Z,98.70
2022-10-01T04:08:56.318Z,97.90
2022-10-01T04:11:25.942Z,96.90
2022-10-01T04:13:53.872Z,96.80
2022-10-01T04:16:21.919Z,97.30
2022-10-01T04:18:49.943Z,98.80
2022-10-01T04:21:17.969Z,99.90
2022-10-01T04:23:45.960Z,99.10
2022-10-01T04:26:13.955Z,97.80
2022-10-01T04:28:45.134Z,96.40
2022-10-01T04:31:25.332Z,95.50
2022-10-01T04:33:53.861Z,95.30
2022-10-01T04:36:22.906Z,95.00
2022-10-01T04:38:54.693Z,97.00
2022-10-01T04:41:25.432Z,97.40
2022-10-01T04:43:54.750Z,96.60
2022-10-01T04:46:22.835Z,95.40
2022-10-01T04:48:50.859Z,95.20
2022-10-01T04:51:18.960Z,95.40
2022-10-01T04:53:47.022Z,96.60
2022-10-01T04:56:14.999Z,96.60
2022-10-01T04:58:42.944Z,97.00
2022-10-01T05:01:12.332Z,96.80
2022-10-01T05:03:40.764Z,98.20
2022-10-01T05:06:08.749Z,97.80
2022-10-01T05:08:36.761Z,98.20
2022-10-01T05:11:04.759Z,98.80
2022-10-01T05:13:32.697Z,99.90
2022-10-01T05:16:02.244Z,99.90
2022-10-01T05:18:32.373Z,99.90
2022-10-01T05:21:00.352Z,99.90
2022-10-01T05:23:28.283Z,99.90
2022-10-01T05:25:56.297Z,99.90
2022-10-01T05:28:24.398Z,99.90
2022-10-01T05:30:52.348Z,99.90
2022-10-01T05:33:20.412Z,99.90
2022-10-01T05:35:49.708Z,99.90
2022-10-01T05:38:17.670Z,99.90
2022-10-01T05:40:47.326Z,99.90
2022-10-01T05:43:16.236Z,99.90
2022-10-01T05:45:44.228Z,99.90
2022-10-01T05:48:12.818Z,99.50
2022-10-01T05:50:42.473Z,99.90
2022-10-01T05:53:13.981Z,99.90
2022-10-01T05:55:42.092Z,99.90
2022-10-01T05:58:12.360Z,99.90
2022-10-01T06:00:42.367Z,99.90
2022-10-01T06:03:12.736Z,99.90
2022-10-01T06:05:40.910Z,99.90
2022-10-01T06:08:10.492Z,99.90
2022-10-01T06:10:39.799Z,99.90
2022-10-01T06:13:08.239Z,99.90
2022-10-01T06:15:38.354Z,99.90
2022-10-01T06:18:08.525Z,99.90
2022-10-01T06:20:36.803Z,99.90
2022-10-01T06:23:07.366Z,99.90
2022-10-01T06:25:37.142Z,99.90
2022-10-01T06:28:08.082Z,99.90
2022-10-01T06:30:38.573Z,99.90
2022-10-01T06:33:08.319Z,99.40
2022-10-01T06:35:37.296Z,99.70
2022-10-01T06:38:06.192Z,98.20
2022-10-01T06:40:34.176Z,96.70
2022-10-01T06:43:02.137Z,96.40
2022-10-01T06:45:32.288Z,95.40
2022-10-01T06:48:02.884Z,98.20
2022-10-01T06:50:31.876Z,92.90
2022-10-01T06:53:02.716Z,94.20
2022-10-01T06:55:32.714Z,92.60
2022-10-01T06:58:02.396Z,91.50
2022-10-01T07:00:34.239Z,84.40
2022-10-01T07:03:03.105Z,87.00
2022-10-01T07:05:31.570Z,82.20
2022-10-01T07:07:59.492Z,80.20
2022-10-01T07:10:27.448Z,77.90
2022-10-01T07:12:55.461Z,75.00
2022-10-01T07:15:23.874Z,68.90
2022-10-01T07:17:53.621Z,57.40
2022-10-01T07:20:22.414Z,61.30
2022-10-01T07:22:50.685Z,55.50
2022-10-01T07:25:18.782Z,40.70
2022-10-01T07:27:46.832Z,47.20
2022-10-01T07:30:14.959Z,40.00
2022-10-01T07:32:45.840Z,27.70
2022-10-01T07:35:16.264Z,17.50
2022-10-01T07:37:44.264Z,22.40
2022-10-01T07:40:12.227Z,18.60
2022-10-01T07:42:41.170Z,12.70
2022-10-01T07:45:10.519Z,11.00
2022-10-01T07:47:38.493Z,1.00
2022-10-01T07:50:07.333Z,1.00
2022-10-01T07:52:36.629Z,1.00
2022-10-01T07:55:10.944Z,1.00
2022-10-01T07:57:38.907Z,1.00
2022-10-01T08:00:08.497Z,1.00
2022-10-01T08:02:37.523Z,1.00
2022-10-01T08:05:21.737Z,1.00
2022-10-01T08:07:51.325Z,1.00
2022-10-01T08:10:19.949Z,1.00
2022-10-01T08:12:48.204Z,1.00
2022-10-01T08:15:18.635Z,1.00
2022-10-01T08:17:46.697Z,1.00
2022-10-01T08:20:16.219Z,1.00
2022-10-01T08:22:44.000Z,1.00
2022-10-01T08:25:13.299Z,1.00
2022-10-01T08:27:41.281Z,1.00
2022-10-01T08:30:10.168Z,1.00
2022-10-01T08:32:38.128Z,1.00
2022-10-01T08:35:07.059Z,1.00
2022-10-01T08:37:35.044Z,1.00
2022-10-01T08:40:03.184Z,1.00
2022-10-01T08:42:53.251Z,1.00
2022-10-01T08:45:27.831Z,1.00
2022-10-01T08:48:01.368Z,1.00
2022-10-01T08:50:39.915Z,1.00
2022-10-01T08:53:15.261Z,1.00
2022-10-01T08:55:43.920Z,1.00
2022-10-01T08:58:24.681Z,1.00
2022-10-01T09:00:52.756Z,1.00
2022-10-01T09:03:20.977Z,1.00
2022-10-01T09:06:08.837Z,1.00
2022-10-01T09:08:47.153Z,1.00
2022-10-01T09:11:37.953Z,1.00
2022-10-01T09:14:17.385Z,1.00
2022-10-01T09:16:48.492Z,1.00
2022-10-01T09:19:34.859Z,99.90
2022-10-01T09:22:11.178Z,1.00
2022-10-01T09:24:45.017Z,1.00
2022-10-01T09:27:16.206Z,99.90
2022-10-01T09:29:50.247Z,99.90
2022-10-01T09:32:24.158Z,99.90
2022-10-01T09:34:53.288Z,99.90
2022-10-01T09:37:28.912Z,99.90
2022-10-01T09:40:15.373Z,99.90
2022-10-01T09:42:44.070Z,99.90
2022-10-01T09:45:16.083Z,99.90
2022-10-01T09:47:46.909Z,99.90
2022-10-01T09:50:19.896Z,99.90
2022-10-01T09:52:51.323Z,99.90
2022-10-01T09:55:29.141Z,99.90
2022-10-01T09:58:02.589Z,99.90
2022-10-01T10:00:32.876Z,99.90
2022-10-01T10:03:01.731Z,99.90
2022-10-01T10:05:32.282Z,99.90
2022-10-01T10:08:05.191Z,99.90
2022-10-01T10:10:35.675Z,99.90
2022-10-01T10:13:17.260Z,99.90
2022-10-01T10:15:53.633Z,99.90
2022-10-01T10:18:29.224Z,96.60
2022-10-01T10:20:59.614Z,99.90
2022-10-01T10:23:29.231Z,99.90
2022-10-01T10:26:00.799Z,90.80
2022-10-01T10:28:44.060Z,90.90
2022-10-01T10:31:17.152Z,93.80
2022-10-01T10:33:52.506Z,99.90
2022-10-01T10:36:23.812Z,99.90
2022-10-01T10:38:53.620Z,99.90
2022-10-01T10:41:26.434Z,99.90
2022-10-01T10:43:59.009Z,99.90
2022-10-01T10:46:32.189Z,99.90
2022-10-01T10:49:05.739Z,99.90
2022-10-01T10:51:56.044Z,99.90
2022-10-01T10:54:32.455Z,99.90
2022-10-01T10:57:03.246Z,99.90
2022-10-01T10:59:33.026Z,99.90
2022-10-01T11:02:05.459Z,99.90
2022-10-01T11:04:43.183Z,99.90
2022-10-01T11:07:14.707Z,99.90
2022-10-01T11:09:56.557Z,99.90
2022-10-01T11:12:40.947Z,99.90
2022-10-01T11:15:26.200Z,99.90
2022-10-01T11:18:21.103Z,99.90
2022-10-01T11:21:00.689Z,99.90
2022-10-01T11:23:55.123Z,99.90
2022-10-01T11:26:31.065Z,99.90
2022-10-01T11:29:14.137Z,99.90
2022-10-01T11:31:49.559Z,99.90
2022-10-01T11:34:52.864Z,99.90
2022-10-01T11:37:38.963Z,99.90
2022-10-01T11:40:21.113Z,99.90
2022-10-01T11:42:51.521Z,99.90
2022-10-01T11:45:23.279Z,99.90
2022-10-01T11:47:55.714Z,99.90
2022-10-01T11:50:28.268Z,99.90
2022-10-01T11:53:00.338Z,99.90
2022-10-01T11:55:51.143Z,99.90
2022-10-01T11:58:50.860Z,99.90
2022-10-01T12:01:26.380Z,99.90
2022-10-01T12:04:06.067Z,99.90
2022-10-01T12:06:41.068Z,99.90
2022-10-01T12:09:18.674Z,99.90
2022-10-01T12:11:53.171Z,99.90
2022-10-01T12:14:27.643Z,99.90
2022-10-01T12:17:00.509Z,99.90
2022-10-01T12:19:32.327Z,99.90
2022-10-01T12:22:06.255Z,99.90
2022-10-01T12:24:40.188Z,99.90
2022-10-01T12:27:33.203Z,99.90
2022-10-01T12:30:05.310Z,99.90
2022-10-01T12:32:47.358Z,99.90
2022-10-01T12:35:27.783Z,99.90
2022-10-01T12:38:13.887Z,99.90
2022-10-01T12:40:47.975Z,99.90
2022-10-01T12:43:35.264Z,99.90
2022-10-01T12:46:12.451Z,99.90
2022-10-01T12:48:47.639Z,99.90
2022-10-01T12:51:30.697Z,99.90
2022-10-01T12:54:12.718Z,99.90
2022-10-01T12:56:46.841Z,99.90
2022-10-01T12:59:33.920Z,99.90
2022-10-01T13:02:20.412Z,99.90
2022-10-01T13:05:10.036Z,99.90
2022-10-01T13:07:48.421Z,99.90
2022-10-01T13:10:29.597Z,99.90
2022-10-01T13:13:04.268Z,99.90
2022-10-01T13:15:37.645Z,99.90
2022-10-01T13:18:16.278Z,99.90
2022-10-01T13:20:54.188Z,99.90
2022-10-01T13:23:30.076Z,99.90
2022-10-01T13:26:07.244Z,99.90
2022-10-01T13:28:56.109Z,99.90
2022-10-01T13:31:35.118Z,99.90
2022-10-01T13:34:03.594Z,99.90
2022-10-01T13:36:33.382Z,99.90
2022-10-01T13:39:02.092Z,99.90
2022-10-01T13:41:33.603Z,99.90
2022-10-01T13:44:18.488Z,99.90
2022-10-01T13:46:53.072Z,99.90
2022-10-01T13:49:25.282Z,99.90
2022-10-01T13:51:53.981Z,99.90
2022-10-01T13:54:27.681Z,99.90
2022-10-01T13:57:07.723Z,99.90
2022-10-01T13:59:37.269Z,99.90
2022-10-01T14:02:19.982Z,99.90
2022-10-01T14:04:50.369Z,99.90
2022-10-01T14:07:22.539Z,99.90
2022-10-01T14:09:53.192Z,99.90
2022-10-01T14:12:44.132Z,99.90
2022-10-01T14:15:35.532Z,99.90
2022-10-01T14:18:08.129Z,99.90
2022-10-01T14:20:49.005Z,99.90
2022-10-01T14:23:19.650Z,99.90
2022-10-01T14:25:53.992Z,99.90
2022-10-01T14:28:43.349Z,99.90
2022-10-01T14:31:19.067Z,99.90
2022-10-01T14:34:18.278Z,99.90
2022-10-01T14:36:49.079Z,99.90
2022-10-01T14:39:20.027Z,99.90
2022-10-01T14:41:49.300Z,99.90
2022-10-01T14:44:28.025Z,99.90
2022-10-01T14:46:57.575Z,99.90
2022-10-01T14:49:26.742Z,99.90
2022-10-01T14:51:59.755Z,1.00
2022-10-01T14:54:28.411Z,1.00
2022-10-01T14:56:56.608Z,1.00
2022-10-01T14:59:34.117Z,1.00
2022-10-01T15:02:03.749Z,1.00
2022-10-01T15:04:31.784Z,1.00
2022-10-01T15:07:13.588Z,1.00
2022-10-01T15:09:41.576Z,1.00
2022-10-01T15:12:09.726Z,1.00
2022-10-01T15:14:39.230Z,1.00
2022-10-01T15:17:07.960Z,1.00
2022-10-01T15:19:44.476Z,1.00
2022-10-01T15:22:13.056Z,1.00
2022-10-01T15:24:44.423Z,1.00
2022-10-01T15:27:14.787Z,1.00
2022-10-01T15:29:44.642Z,1.00
2022-10-01T15:32:17.604Z,1.00
2022-10-01T15:34:49.712Z,1.00
2022-10-01T15:37:21.889Z,1.00
2022-10-01T15:39:52.206Z,1.00
2022-10-01T15:42:31.466Z,1.00
2022-10-01T15:45:30.843Z,1.00
2022-10-01T15:47:58.953Z,1.00
2022-10-01T15:50:29.864Z,1.00
2022-10-01T15:53:03.305Z,1.00
2022-10-01T15:55:35.897Z,1.00
2022-10-01T15:58:08.750Z,1.00
2022-10-01T16:00:53.170Z,1.00
2022-10-01T16:03:25.379Z,1.00
2022-10-01T16:05:55.913Z,1.00
2022-10-01T16:08:32.801Z,1.00
2022-10-01T16:11:17.609Z,1.00
2022-10-01T16:13:47.305Z,1.00
2022-10-01T16:16:23.879Z,1.00
2022-10-01T16:18:56.234Z,1.00
2022-10-01T16:21:24.479Z,1.00
2022-10-01T16:23:53.979Z,1.00
2022-10-01T16:26:38.484Z,1.00
2022-10-01T16:29:19.349Z,1.00
2022-10-01T16:31:48.898Z,1.00
2022-10-01T16:34:18.685Z,1.00
2022-10-01T16:36:47.092Z,1.00
2022-10-01T16:39:15.553Z,1.00
2022-10-01T16:41:50.829Z,1.00
2022-10-01T16:44:29.600Z,1.00
2022-10-01T16:46:58.868Z,1.00
2022-10-01T16:49:27.202Z,1.00
2022-10-01T16:51:56.357Z,1.00
2022-10-01T16:54:26.606Z,1.00
2022-10-01T16:56:55.260Z,1.00
2022-10-01T16:59:24.753Z,1.00
2022-10-01T17:01:55.776Z,1.00
2022-10-01T17:04:29.280Z,1.00
2022-10-01T17:06:59.569Z,1.00
2022-10-01T17:09:27.823Z,1.00
2022-10-01T17:11:56.153Z,1.00
2022-10-01T17:14:25.317Z,1.00
2022-10-01T17:16:53.509Z,1.00
2022-10-01T17:19:21.832Z,1.00
2022-10-01T17:21:51.278Z,1.00
2022-10-01T17:24:19.240Z,1.00
2022-10-01T17:26:47.495Z,1.00
2022-10-01T17:29:15.424Z,1.00
2022-10-01T17:31:44.818Z,1.00
2022-10-01T17:34:13.061Z,1.00
2022-10-01T17:36:41.355Z,1.00
2022-10-01T17:39:10.755Z,1.00
2022-10-01T17:41:38.705Z,1.00
2022-10-01T17:44:06.702Z,1.00
2022-10-01T17:46:34.936Z,1.00
2022-10-01T17:49:03.149Z,1.00
2022-10-01T17:51:31.173Z,1.00
2022-10-01T17:54:01.828Z,1.00
2022-10-01T17:56:32.607Z,1.00
2022-10-01T17:59:01.075Z,1.00
2022-10-01T18:01:29.087Z,1.00
2022-10-01T18:04:00.139Z,1.00
2022-10-01T18:06:28.676Z,1.00
2022-10-01T18:08:56.973Z,1.00
2022-10-01T18:11:25.994Z,1.00
2022-10-01T18:13:55.312Z,1.00
2022-10-01T18:16:23.908Z,1.00
2022-10-01T18:21:44.551Z,1.00
2022-10-01T18:24:12.536Z,1.00
2022-10-01T18:26:40.520Z,1.00
2022-10-01T18:29:10.765Z,1.00
2022-10-01T18:31:44.207Z,1.00
2022-10-01T18:34:18.834Z,1.00
2022-10-01T18:36:56.043Z,1.00
2022-10-01T18:39:29.002Z,1.00
2022-10-01T18:41:57.970Z,1.00
2022-10-01T18:44:27.349Z,1.00
2022-10-01T18:47:13.783Z,1.00
2022-10-01T18:50:04.716Z,1.00
2022-10-01T18:52:52.036Z,1.00
2022-10-01T18:55:40.454Z,1.00
2022-10-01T18:58:25.632Z,1.00
2022-10-01T19:01:02.285Z,1.00
2022-10-01T19:04:05.784Z,1.00
2022-10-01T19:06:53.736Z,1.00
2022-10-01T19:09:33.295Z,1.00
2022-10-01T19:12:05.724Z,1.00
2022-10-01T19:14:51.837Z,1.00
2022-10-01T19:17:36.661Z,1.00
2022-10-01T19:20:21.228Z,1.00
2022-10-01T19:23:10.516Z,1.00
2022-10-01T19:25:44.544Z,1.00
2022-10-01T19:28:27.866Z,1.00
2022-10-01T19:31:07.146Z,1.00
2022-10-01T19:33:44.071Z,1.00
2022-10-01T19:36:19.050Z,1.00
2022-10-01T19:38:50.878Z,1.00
2022-10-01T19:41:25.632Z,1.00
2022-10-01T19:43:58.134Z,1.00
2022-10-01T19:46:33.888Z,1.00
2022-10-01T19:49:06.749Z,1.00
2022-10-01T19:51:38.250Z,3.90
2022-10-01T19:54:16.359Z,4.00
2022-10-01T19:56:47.538Z,8.60
2022-10-01T19:59:19.673Z,11.10
2022-10-01T20:01:51.666Z,11.60
2022-10-01T20:04:29.649Z,10.40
2022-10-01T20:07:04.239Z,8.60
2022-10-01T20:09:38.635Z,10.60
2022-10-01T20:12:17.383Z,10.50
2022-10-01T20:15:11.255Z,10.70
2022-10-01T20:17:52.967Z,9.20
2022-10-01T20:20:30.726Z,8.10
2022-10-01T20:23:11.004Z,8.30
2022-10-01T20:25:48.541Z,7.90
2022-10-01T20:28:24.910Z,4.70
2022-10-01T20:31:00.349Z,5.70
2022-10-01T20:33:35.420Z,2.90
2022-10-01T20:36:11.414Z,3.90
2022-10-01T20:38:44.568Z,1.40
2022-10-01T20:41:16.550Z,3.20
2022-10-01T20:43:49.117Z,3.30
2022-10-01T20:46:32.447Z,3.10
2022-10-01T20:49:05.403Z,1.90
2022-10-01T20:51:40.577Z,3.30
2022-10-01T20:54:12.771Z,2.60
2022-10-01T20:56:45.507Z,1.00
2022-10-01T20:59:19.175Z,1.00
2022-10-01T21:01:54.698Z,1.00
2022-10-01T21:04:28.477Z,1.00
2022-10-01T21:07:06.646Z,1.00
2022-10-01T21:09:38.315Z,1.00
2022-10-01T21:12:11.511Z,1.00
2022-10-01T21:14:46.167Z,1.00
2022-10-01T21:17:30.971Z,1.00
2022-10-01T21:20:15.279Z,1.00
2022-10-01T21:22:57.149Z,1.00
2022-10-01T21:25:34.754Z,1.00
2022-10-01T21:28:15.081Z,1.00
2022-10-01T21:30:57.464Z,1.00
2022-10-01T21:33:27.373Z,1.00
2022-10-01T21:36:02.416Z,1.00
2022-10-01T21:38:39.924Z,1.00
2022-10-01T21:41:24.119Z,1.00
2022-10-01T21:44:11.093Z,1.00
2022-10-01T21:46:46.241Z,1.00
2022-10-01T21:49:22.120Z,5.90
2022-10-01T21:51:59.923Z,2.30
2022-10-01T21:54:48.532Z,10.80
2022-10-01T21:57:52.453Z,15.20
2022-10-01T22:00:24.882Z,18.70
2022-10-01T22:03:00.996Z,20.80
2022-10-01T22:05:37.283Z,29.20
2022-10-01T22:08:21.496Z,34.70
2022-10-01T22:10:52.528Z,40.50
2022-10-01T22:13:24.509Z,38.30
2022-10-01T22:15:56.074Z,39.30
2022-10-01T22:18:36.277Z,46.40
2022-10-01T22:21:10.799Z,50.00
2022-10-01T22:23:43.444Z,47.50
2022-10-01T22:26:19.179Z,49.30
2022-10-01T22:28:51.101Z,52.40
2022-10-01T22:31:22.240Z,52.90
2022-10-01T22:33:55.284Z,53.70
2022-10-01T22:36:30.151Z,59.00
2022-10-01T22:39:04.249Z,57.90
2022-10-01T22:41:39.398Z,63.40
2022-10-01T22:44:14.492Z,60.70
2022-10-01T22:47:12.187Z,63.60
2022-10-01T22:50:00.642Z,66.10
2022-10-01T22:52:35.354Z,67.80
2022-10-01T22:55:24.515Z,66.50
2022-10-01T22:58:04.731Z,69.30
2022-10-01T23:00:35.377Z,68.50
2022-10-01T23:03:15.899Z,65.10
2022-10-01T23:05:56.597Z,67.20
2022-10-01T23:08:33.600Z,66.90
2022-10-01T23:11:10.266Z,65.90
2022-10-01T23:13:47.587Z,64.50
2022-10-01T23:16:21.914Z,62.60
2022-10-01T23:19:04.612Z,61.60
2022-10-01T23:21:41.365Z,57.80
2022-10-01T23:24:23.020Z,59.20
2022-10-01T23:27:03.173Z,56.80
2022-10-01T23:29:58.215Z,55.90
2022-10-01T23:32:42.598Z,52.30
2022-10-01T23:35:14.722Z,50.40
2022-10-01T23:37:58.069Z,47.90
2022-10-01T23:40:31.852Z,40.80
2022-10-01T23:43:05.844Z,42.40
2022-10-01T23:45:41.024Z,41.50
2022-10-01T23:48:13.700Z,38.80
2022-10-01T23:50:46.675Z,40.70
2022-10-01T23:53:18.303Z,35.70
2022-10-01T23:56:14.852Z,34.40
2022-10-01T23:58:49.147Z,27.40
